• Join FlightAware (Why Join?)
  • Login
  • US Flag 
10:03PM EDT


 

Airport Tracker/Info


-or-


 

Live Flight TrackerFlight Track Log ✈ JAL402 ✈ 20-Sep-2013 ✈ EGLL / LHR - RJAA / NRT

Flight Track Log - Related Links

Times and Time Zones

All times are in EDT time to prevent confusion due to time zone crossing. See the JAL402 flight status page for this flight to view local times or setup timezone preferences in your user account.

Time Position Orientation Groundspeed Altitude Reporting Facility
EDT Latitude Longitude Course Direction KTS MPH feet Rate Location/Type
02:48PM 51.4812 -0.5596 299° West 204 235 2,400  Level FlightAware ADS-B
02:49PM 51.4878 -0.5801 297° West 206 237 3,100 2,160 Climbing FlightAware ADS-B
02:49PM 51.4947 -0.6013 298° West 221 254 3,500 1,560 Climbing FlightAware ADS-B
02:49PM 51.5023 -0.6245 298° West 235 270 3,900 1,560 Climbing FlightAware ADS-B
02:49PM 51.5061 -0.6364 297° West 241 277 4,100 1,980 Climbing FlightAware ADS-B
02:49PM 51.5085 -0.6425 302° West 243 280 4,300 2,520 Climbing FlightAware ADS-B
02:49PM 51.5105 -0.6467 308° West 245 282 4,400 1,980 Climbing FlightAware ADS-B
02:49PM 51.5130 -0.6511 313° West 248 285 4,500 1,680 Climbing FlightAware ADS-B
02:49PM 51.5161 -0.6552 320° Northwest 251 289 4,600 1,680 Climbing FlightAware ADS-B
02:49PM 51.5192 -0.6584 327° Northwest 254 292 4,700 1,980 Climbing FlightAware ADS-B
02:50PM 51.5228 -0.6612 335° Northwest 257 296 4,800 1,500 Climbing FlightAware ADS-B
02:50PM 51.5278 -0.6638 342° North 262 302 4,900 1,320 Climbing FlightAware ADS-B
02:50PM 51.5327 -0.6652 350° North 266 306 5,000 1,680 Climbing FlightAware ADS-B
02:50PM 51.5370 -0.6656 357° North 271 312 5,100 1,980 Climbing FlightAware ADS-B
02:50PM 51.5409 -0.6653 North 275 316 5,200 2,520 Climbing FlightAware ADS-B
02:50PM 51.5450 -0.6642 North 277 319 5,400 1,980 Climbing FlightAware ADS-B
02:50PM 51.5511 -0.6615 16° North 281 323 5,500 720 Climbing FlightAware ADS-B
02:50PM 51.5547 -0.6592 22° Northeast 281 323 5,500 720 Level FlightAware ADS-B
02:50PM 51.5605 -0.6540 29° Northeast 282 325 5,600 1,500 Climbing FlightAware ADS-B
02:50PM 51.5643 -0.6495 36° Northeast 283 326 5,700 1,680 Climbing FlightAware ADS-B
02:50PM 51.5682 -0.6439 42° Northeast 285 328 5,800 720 Climbing FlightAware ADS-B
02:50PM 51.5715 -0.6382 47° Northeast 286 329 5,800  Level FlightAware ADS-B
02:50PM 51.5742 -0.6328 51° Northeast 286 329 5,800  Level FlightAware ADS-B
02:50PM 51.5803 -0.6186 55° Northeast 286 329 5,800  Level FlightAware ADS-B
02:51PM 51.5858 -0.6051 57° Northeast 286 329 5,800  Level FlightAware ADS-B
02:51PM 51.5979 -0.5762 56° Northeast 286 329 5,800  Level FlightAware ADS-B
02:51PM 51.6103 -0.5477 55° Northeast 286 329 5,800  Level FlightAware ADS-B
02:51PM 51.6144 -0.5383 55° Northeast 286 329 5,800  Level FlightAware ADS-B
02:51PM 51.6201 -0.5243 57° Northeast 287 330 5,800  Level FlightAware ADS-B
02:52PM 51.6276 -0.5037 60° Northeast 287 330 5,800  Level FlightAware ADS-B
02:52PM 51.6340 -0.4879 57° Northeast 287 330 5,800  Level FlightAware ADS-B
02:52PM 51.6456 -0.4617 54° Northeast 286 329 5,800  Level FlightAware ADS-B
02:52PM 51.6579 -0.4345 54° Northeast 287 330 5,800  Level FlightAware ADS-B
02:52PM 51.6698 -0.4086 53° Northeast 286 329 5,800  Level FlightAware ADS-B
02:53PM 51.6819 -0.3822 54° Northeast 285 328 5,800  Level FlightAware ADS-B
02:53PM 51.6861 -0.3726 55° Northeast 286 329 5,800  Level FlightAware ADS-B
02:53PM 51.6891 -0.3646 59° Northeast 287 330 5,800  Level FlightAware ADS-B
02:53PM 51.6927 -0.3526 64° Northeast 286 329 5,800  Level FlightAware ADS-B
02:53PM 51.6948 -0.3435 69° East 287 330 5,800  Level FlightAware ADS-B
02:53PM 51.6998 -0.3179 73° East 288 331 5,800  Level FlightAware ADS-B
02:53PM 51.7012 -0.3080 77° East 288 331 5,800 240 Level FlightAware ADS-B
02:54PM 51.7046 -0.2728 81° East 291 335 5,900 1,680 Climbing FlightAware ADS-B
02:54PM 51.7073 -0.2382 83° East 290 334 6,700 2,700 Climbing FlightAware ADS-B
02:54PM 51.7099 -0.2026 83° East 293 337 7,400 2,700 Climbing FlightAware ADS-B
02:54PM 51.7112 -0.1871 82° East 295 339 7,800 2,580 Climbing FlightAware ADS-B
02:55PM 51.7153 -0.1523 79° East 299 344 8,400 2,400 Climbing FlightAware ADS-B
02:55PM 51.7197 -0.1178 78° East 304 350 9,100 2,580 Climbing FlightAware ADS-B
02:55PM 51.7245 -0.0818 78° East 307 353 9,800 2,100 Climbing FlightAware ADS-B
02:56PM 51.7345 -0.0097 77° East 323 372 10,800 1,140 Climbing FlightAware ADS-B
02:56PM 51.7453 0.0711 78° East 373 429 11,000 960 Climbing FlightAware ADS-B
02:57PM 51.7568 0.1581 78° East 398 458 11,800 1,920 Climbing FlightAware ADS-B
02:57PM 51.7697 0.2549 78° East 410 472 13,100 2,280 Climbing FlightAware ADS-B
02:58PM 51.7836 0.3196 71° East 415 478 13,900 2,220 Climbing FlightAware ADS-B
02:58PM 51.8173 0.4316 64° Northeast 428 493 15,400 2,400 Climbing FlightAware ADS-B
02:59PM 51.8440 0.5240 65° Northeast 436 502 16,700 2,340 Climbing FlightAware
02:59PM 51.8573 0.5679 64° Northeast 432 497 17,200 2,040 Climbing FlightAware ADS-B
03:00PM 51.8840 0.6601 65° Northeast 446 513 18,300 2,220 Climbing FlightAware ADS-B
03:00PM 51.9107 0.7531 65° Northeast 451 519 19,500 2,040 Climbing FlightAware ADS-B
03:01PM 51.9376 0.8471 65° Northeast 459 528 20,400 1,920 Climbing FlightAware ADS-B
03:01PM 51.9654 0.9465 66° East 464 534 21,500 1,860 Climbing FlightAware ADS-B
03:02PM 51.9920 1.0454 66° East 470 541 22,400 1,860 Climbing FlightAware ADS-B
03:02PM 52.0185 1.1449 67° East 476 548 23,400 1,800 Climbing FlightAware ADS-B
03:02PM 52.0300 1.1868 66° East 476 548 23,700 1,320 Climbing FlightAware ADS-B
03:02PM 52.0395 1.2132 60° Northeast 473 544 23,900 1,560 Climbing FlightAware ADS-B
03:03PM 52.0694 1.2716 50° Northeast 468 539 24,500 1,680 Climbing FlightAware ADS-B
03:03PM 52.0804 1.2878 42° Northeast 467 537 24,700 1,560 Climbing FlightAware ADS-B
03:03PM 52.1278 1.3391 34° Northeast 462 532 25,400 1,500 Climbing FlightAware ADS-B
03:04PM 52.1853 1.3941 30° Northeast 468 539 26,200 1,500 Climbing FlightAware ADS-B
03:05PM 52.2978 1.5017 30° Northeast 486 559 27,600 1,500 Climbing FlightAware UK
03:05PM 52.3030 1.5060 30° Northeast 475 547 27,800 1,800 Climbing FlightAware
03:05PM 52.3670 1.5680 30° Northeast 475 547 28,800 1,620 Climbing FlightAware
03:06PM 52.3773 1.5788 30° Northeast 492 566 28,800 2,460 Level FlightAware UK
03:06PM 52.4442 1.6437 30° Northeast 488 562 30,400 2,460 Climbing FlightAware UK
03:06PM 52.4450 1.6440 30° Northeast 459 528 30,400 960 Level FlightAware
03:07PM 52.5099 1.7076 30° Northeast 486 559 31,000 900 Climbing FlightAware UK
03:07PM 52.5120 1.7090 30° Northeast 464 534 31,000  Level FlightAware
03:07PM 52.5750 1.7700 30° Northeast 461 531 31,000  Level FlightAware
03:08PM 52.6314 1.8261 30° Northeast 482 555 31,000  Level FlightAware UK
03:08PM 52.6420 1.8360 30° Northeast 459 528 31,000 -180 Level FlightAware
03:09PM 52.7076 1.9009 30° Northeast 482 555 30,900  Descending FlightAware UK
03:09PM 52.7100 1.9030 30° Northeast 460 529 31,000 120 Climbing FlightAware
03:09PM 52.7760 1.9670 30° Northeast 460 529 31,000  Level FlightAware
03:10PM 52.8340 2.0250 31° Northeast 462 532 31,000  Level FlightAware
03:10PM 52.8970 2.0870 31° Northeast 463 533 31,000  Level FlightAware
03:11PM 52.9650 2.1550 31° Northeast 464 534 31,000  Level FlightAware
03:12PM 53.0320 2.2220 31° Northeast 464 534 31,000  Level FlightAware
03:12PM 53.1000 2.2900 31° Northeast 467 537 31,000  Level FlightAware
03:13PM 53.1750 2.3660 31° Northeast 468 539 31,000  Level FlightAware
03:13PM 53.2290 2.4200 31° Northeast 470 541 31,000  Level FlightAware
03:14PM 53.2930 2.4850 31° Northeast 471 542 31,000  Level FlightAware
03:14PM 53.3580 2.5510 31° Northeast 476 548 31,000  Level FlightAware
03:15PM 53.4210 2.6160 32° Northeast 479 551 31,000  Level FlightAware
03:16PM 53.4966 2.6933 32° Northeast 488 562 31,000  Level FlightAware UK
03:16PM 53.5100 2.7070 32° Northeast 480 552 31,000  Level FlightAware
03:16PM 53.5760 2.7750 31° Northeast 482 555 31,000  Level FlightAware
03:17PM 53.6380 2.8390 31° Northeast 481 554 31,000  Level FlightAware
03:17PM 53.7050 2.9090 32° Northeast 481 554 31,000  Level FlightAware
03:18PM 53.7780 2.9840 31° Northeast 482 555 31,000  Level FlightAware
03:19PM 53.8380 3.0470 32° Northeast 483 556 31,000  Level FlightAware
03:19PM 53.9064 3.1191 32° Northeast 490 564 31,000  Level FlightAware UK
03:19PM 53.9120 3.1250 32° Northeast 476 548 31,000  Level FlightAware
03:20PM 53.9690 3.1850 32° Northeast 476 548 31,000  Level FlightAware
03:20PM 54.0311 3.2502 32° Northeast 488 562 31,000  Level FlightAware UK
03:21PM 54.0490 3.2700 32° Northeast 476 548 31,000  Level FlightAware
03:21PM 54.1250 3.3500 32° Northeast 486 559 31,000  Level FlightAware
03:22PM 54.1920 3.4210 32° Northeast 487 560 31,000  Level FlightAware
03:22PM 54.2550 3.4880 32° Northeast 489 563 31,000  Level FlightAware
03:23PM 54.3180 3.5560 32° Northeast 491 565 31,000  Level FlightAware
03:23PM 54.3860 3.6300 32° Northeast 491 565 31,000  Level FlightAware
03:24PM 54.4570 3.7060 32° Northeast 492 566 31,000  Level FlightAware
03:25PM 54.5200 3.7750 32° Northeast 493 567 31,000  Level FlightAware
03:25PM 54.5840 3.8450 32° Northeast 493 567 31,000  Level FlightAware
03:25PM 54.5937 3.8558 32° Northeast 490 564 31,000  Level FlightAware UK
03:26PM 54.6513 3.9189 32° Northeast 490 564 31,000  Level FlightAware UK
03:26PM 54.6460 3.9130 32° Northeast 492 566 31,000  Level FlightAware
03:26PM 54.7140 3.9880 32° Northeast 492 566 31,000  Level FlightAware
03:27PM 54.7880 4.0690 32° Northeast 484 557 31,000  Level FlightAware
03:27PM 54.8440 4.1340 32° Northeast 488 562 31,000  Level FlightAware
03:28PM 54.8581 4.1485 32° Northeast 490 564 31,000  Level FlightAware UK
03:28PM 54.9163 4.2517 32° Northeast 488 562 31,000  Level FlightAware UK
03:28PM 54.9130 4.2460 32° Northeast 496 571 31,000  Level FlightAware
03:29PM 54.9638 4.3405 32° Northeast 488 562 31,000  Level FlightAware UK
03:29PM 54.9650 4.3430 32° Northeast 504 580 31,000  Level FlightAware
03:29PM 55.0220 4.4530 48° Northeast 503 579 31,000  Level FlightAware
03:30PM 55.0760 4.5550 47° Northeast 503 579 31,000  Level FlightAware
03:30PM 55.1320 4.6630 48° Northeast 502 578 31,000  Level FlightAware
03:31PM 55.1890 4.7840 50° Northeast 500 575 31,000  Level FlightAware
03:32PM 55.2480 4.9150 52° Northeast 498 573 31,000  Level FlightAware
03:32PM 55.2920 5.0130 52° Northeast 498 573 31,000  Level FlightAware
03:33PM 55.3412 5.1218 52° Northeast 1 1 31,000  Level FlightAware UK
03:33PM 55.3420 5.1250 52° Northeast 503 579 31,000  Level FlightAware
03:33PM 55.3900 5.2380 53° Northeast 501 577 31,000  Level FlightAware
03:34PM 55.4380 5.3490 53° Northeast 500 575 31,000  Level FlightAware
03:35PM 55.4870 5.4630 53° Northeast 494 568 31,000  Level FlightAware
03:35PM 55.5370 5.5780 52° Northeast 494 568 31,000  Level FlightAware
03:36PM 55.5860 5.6920 53° Northeast 495 570 31,000  Level FlightAware
03:36PM 55.6390 5.8170 53° Northeast 495 570 31,000  Level FlightAware
03:37PM 55.6830 5.9210 53° Northeast 496 571 31,000  Level FlightAware
03:38PM 55.7450 6.0680 53° Northeast 501 577 31,000  Level FlightAware
03:38PM 55.7960 6.1920 54° Northeast 501 577 31,000  Level FlightAware
03:39PM 55.8430 6.3040 53° Northeast 501 577 31,000  Level FlightAware
03:40PM 55.8940 6.4280 54° Northeast 502 578 31,000  Level FlightAware
03:40PM 55.9390 6.5370 54° Northeast 501 577 31,000  Level FlightAware
03:41PM 55.9880 6.6560 54° Northeast 501 577 31,000  Level FlightAware
03:41PM 56.0380 6.7780 54° Northeast 499 574 31,000  Level FlightAware
03:42PM 56.0790 6.8810 54° Northeast 499 574 31,000  Level FlightAware
03:42PM 56.1290 7.0030 54° Northeast 498 573 31,000  Level FlightAware
03:43PM 56.1740 7.1160 54° Northeast 498 573 31,000  Level FlightAware
03:44PM 56.2230 7.2370 54° Northeast 498 573 31,000  Level FlightAware
03:44PM 56.2660 7.3470 55° Northeast 498 573 31,000  Level FlightAware
03:45PM 56.3170 7.4740 54° Northeast 499 574 31,000  Level FlightAware
03:45PM 56.3640 7.5940 55° Northeast 498 573 31,000  Level FlightAware
03:46PM 56.4120 7.7170 55° Northeast 497 572 31,000  Level FlightAware
03:46PM 56.4550 7.8260 54° Northeast 496 571 31,000  Level FlightAware
03:47PM 56.5010 7.9440 55° Northeast 496 571 31,000  Level FlightAware
03:48PM 56.5430 8.0530 55° Northeast 496 571 31,000  Level FlightAware
03:48PM 56.5940 8.1850 55° Northeast 496 571 31,000  Level FlightAware
03:49PM 56.6410 8.3080 55° Northeast 495 570 31,000  Level FlightAware
03:49PM 56.6880 8.4310 55° Northeast 494 568 31,000  Level FlightAware
03:50PM 56.7280 8.5380 56° Northeast 494 568 31,000  Level FlightAware
03:51PM 56.7750 8.6610 55° Northeast 489 563 31,000  Level FlightAware
03:51PM 56.8210 8.7850 56° Northeast 486 559 31,000 240 Level FlightAware
03:52PM 56.8660 8.9050 56° Northeast 490 564 31,300 1,080 Climbing FlightAware
03:52PM 56.9090 9.0200 56° Northeast 483 556 32,300 1,440 Climbing FlightAware
03:53PM 56.9550 9.1440 56° Northeast 480 552 33,000 600 Climbing FlightAware
03:53PM 56.9930 9.2490 56° Northeast 477 549 33,000  Level FlightAware
03:54PM 57.0380 9.3710 56° Northeast 479 551 33,000  Level FlightAware
03:55PM 57.0810 9.4900 56° Northeast 478 550 33,000  Level FlightAware
03:55PM 57.1240 9.6070 56° Northeast 479 551 33,000  Level FlightAware
03:56PM 57.1700 9.7340 56° Northeast 482 555 33,000  Level FlightAware
03:56PM 57.2100 9.8460 57° Northeast 484 557 33,000  Level FlightAware
03:57PM 57.2540 9.9700 57° Northeast 484 557 33,000  Level FlightAware
03:58PM 57.2950 10.0860 57° Northeast 485 558 33,000  Level FlightAware
03:58PM 57.3380 10.2060 56° Northeast 486 559 33,000  Level FlightAware
03:59PM 57.3840 10.3380 57° Northeast 485 558 33,000  Level FlightAware
03:59PM 57.4280 10.4610 56° Northeast 485 558 33,000  Level FlightAware
04:00PM 57.4670 10.5730 57° Northeast 486 559 33,000  Level FlightAware
04:00PM 57.5100 10.6980 57° Northeast 487 560 33,000  Level FlightAware
04:01PM 57.5540 10.8270 58° Northeast 487 560 33,000  Level FlightAware
04:02PM 57.5920 10.9370 57° Northeast 487 560 33,000  Level FlightAware
04:02PM 57.6380 11.0720 57° Northeast 487 560 33,000  Level FlightAware
04:03PM 57.6770 11.1870 58° Northeast 489 563 33,000  Level FlightAware
04:03PM 57.7200 11.3140 58° Northeast 491 565 33,000  Level FlightAware
04:04PM 57.7640 11.4430 57° Northeast 491 565 33,000  Level FlightAware
04:05PM 57.8070 11.5740 58° Northeast 490 564 33,000  Level FlightAware
04:05PM 57.8420 11.6790 58° Northeast 490 564 33,000  Level FlightAware
04:06PM 57.8860 11.8110 58° Northeast 489 563 33,000  Level FlightAware
04:06PM 57.9310 11.9490 58° Northeast 488 562 33,000  Level FlightAware
04:07PM 57.9730 12.0760 58° Northeast 489 563 33,000  Level FlightAware
04:07PM 58.0110 12.1940 59° Northeast 487 560 33,000  Level FlightAware
04:08PM 58.0530 12.3220 58° Northeast 484 557 33,000  Level FlightAware
04:09PM 58.0950 12.4520 59° Northeast 483 556 33,000  Level FlightAware
04:09PM 58.1350 12.5780 59° Northeast 482 555 33,000  Level FlightAware
04:10PM 58.1730 12.6980 59° Northeast 480 552 33,000  Level FlightAware
04:10PM 58.2140 12.8260 59° Northeast 478 550 33,000  Level FlightAware
04:11PM 58.2290 12.8730 59° Northeast 478 550 33,000  Level FlightAware
04:12PM 58.2900 13.0670 59° Northeast 478 550 33,000  Level FlightAware
04:12PM 58.3260 13.1820 59° Northeast 478 550 33,000  Level FlightAware
04:13PM 58.3620 13.3010 60° Northeast 479 551 33,000  Level FlightAware
04:13PM 58.4090 13.4500 59° Northeast 478 550 33,000  Level FlightAware
04:14PM 58.4470 13.5760 60° Northeast 477 549 33,000  Level FlightAware
04:14PM 58.4880 13.7100 60° Northeast 476 548 33,000  Level FlightAware
04:15PM 58.5210 13.8200 60° Northeast 474 545 33,000  Level FlightAware
04:16PM 58.5610 13.9510 60° Northeast 474 545 33,000  Level FlightAware
04:16PM 58.5970 14.0690 60° Northeast 473 544 33,000  Level FlightAware
04:17PM 58.6330 14.1890 60° Northeast 473 544 33,000  Level FlightAware
04:17PM 58.6750 14.3320 60° Northeast 475 547 33,000  Level FlightAware
04:18PM 58.7160 14.4720 61° Northeast 474 545 33,000  Level FlightAware
04:18PM 58.7480 14.5800 60° Northeast 473 544 33,000  Level FlightAware
04:19PM 58.7860 14.7090 60° Northeast 472 543 33,000  Level FlightAware
04:20PM 58.8240 14.8390 61° Northeast 473 544 33,000  Level FlightAware
04:20PM 58.8630 14.9740 61° Northeast 474 545 33,000  Level FlightAware
04:21PM 58.8980 15.0960 61° Northeast 474 545 33,000  Level FlightAware
04:21PM 58.9360 15.2310 61° Northeast 475 547 33,000  Level FlightAware
04:22PM 58.9750 15.3690 61° Northeast 475 547 33,000  Level FlightAware
04:23PM 59.0100 15.4920 61° Northeast 477 549 33,000  Level FlightAware
04:23PM 59.0490 15.6280 61° Northeast 475 547 33,000  Level FlightAware
04:24PM 59.0820 15.7470 62° Northeast 475 547 33,000  Level FlightAware
04:24PM 59.1210 15.8870 61° Northeast 477 549 33,000  Level FlightAware
04:25PM 59.1590 16.0260 62° Northeast 479 551 33,000  Level FlightAware
04:25PM 59.1910 16.1430 62° Northeast 481 554 33,000  Level FlightAware
04:26PM 59.2320 16.2920 62° Northeast 483 556 33,000  Level FlightAware
04:27PM 59.2700 16.4340 62° Northeast 484 557 33,000  Level FlightAware
04:27PM 59.3020 16.5510 62° Northeast 485 558 33,000  Level FlightAware
04:28PM 59.3400 16.6940 62° Northeast 487 560 33,000  Level FlightAware
04:28PM 59.3760 16.8300 62° Northeast 490 564 33,000  Level FlightAware
04:29PM 59.4090 16.9540 62° Northeast 491 565 33,000  Level FlightAware
04:30PM 59.4470 17.0990 63° Northeast 493 567 33,000  Level FlightAware
04:30PM 59.4850 17.2440 63° Northeast 494 568 33,000  Level FlightAware
04:31PM 59.5210 17.3820 63° Northeast 496 571 33,000  Level FlightAware
04:31PM 59.5600 17.5320 63° Northeast 498 573 33,000  Level FlightAware
04:32PM 59.5940 17.6630 63° Northeast 499 574 33,000  Level FlightAware
04:32PM 59.6300 17.8050 63° Northeast 497 572 33,000  Level FlightAware
04:33PM 59.6650 17.9450 64° Northeast 494 568 33,000  Level FlightAware
04:34PM 59.7050 18.1010 63° Northeast 494 568 33,000  Level FlightAware
04:34PM 59.7380 18.2330 64° Northeast 495 570 33,000  Level FlightAware
04:35PM 59.7750 18.3840 64° Northeast 495 570 33,000  Level FlightAware
04:35PM 59.8070 18.5130 64° Northeast 497 572 33,000  Level FlightAware
04:36PM 59.8420 18.6570 64° Northeast 497 572 33,000  Level FlightAware
04:36PM 59.8700 18.7700 64° Northeast 497 572 33,000  Level FlightAware
04:37PM 59.9080 18.9200 63° Northeast 492 566 33,000  Level FlightAware
04:38PM 59.9480 19.0660 61° Northeast 491 565 33,000  Level FlightAware
04:38PM 59.9830 19.1880 60° Northeast 490 564 33,000  Level FlightAware
04:39PM 60.0180 19.3130 61° Northeast 491 565 33,000  Level FlightAware
04:39PM 60.0640 19.4710 60° Northeast 490 564 33,000  Level FlightAware
04:40PM 60.1060 19.6200 60° Northeast 490 564 33,000  Level FlightAware
04:41PM 60.1460 19.7590 60° Northeast 493 567 33,000  Level FlightAware
04:41PM 60.1840 19.8940 60° Northeast 492 566 33,000  Level FlightAware
04:42PM 60.2230 20.0360 61° Northeast 491 565 33,000  Level FlightAware
04:42PM 60.2580 20.1630 61° Northeast 491 565 33,000  Level FlightAware
04:43PM 60.2990 20.3090 60° Northeast 492 566 33,000  Level FlightAware
04:43PM 60.3320 20.4310 61° Northeast 491 565 33,000  Level FlightAware
04:44PM 60.3770 20.5950 61° Northeast 491 565 33,000  Level FlightAware
04:45PM 60.4100 20.7190 62° Northeast 490 564 33,000  Level FlightAware
04:45PM 60.4490 20.8630 61° Northeast 493 567 33,000  Level FlightAware
04:46PM 60.4870 21.0080 62° Northeast 493 567 33,000  Level FlightAware
04:46PM 60.5280 21.1620 62° Northeast 494 568 33,000  Level FlightAware
04:47PM 60.5630 21.2950 62° Northeast 496 571 33,000  Level FlightAware
04:48PM 60.5990 21.4330 62° Northeast 497 572 33,000  Level FlightAware
04:48PM 60.6410 21.5930 62° Northeast 496 571 33,000  Level FlightAware
04:49PM 60.6750 21.7260 62° Northeast 495 570 33,000  Level FlightAware
04:49PM 60.7120 21.8710 62° Northeast 495 570 33,000  Level FlightAware
04:50PM 60.7500 22.0210 63° Northeast 493 567 33,000  Level FlightAware
04:50PM 60.7870 22.1640 62° Northeast 491 565 33,000  Level FlightAware
04:51PM 60.8200 22.2980 63° Northeast 491 565 33,000  Level FlightAware
04:52PM 60.8560 22.4420 63° Northeast 490 564 33,000  Level FlightAware
04:52PM 60.8940 22.5960 63° Northeast 490 564 33,000  Level FlightAware
04:53PM 60.9270 22.7300 63° Northeast 489 563 33,000  Level FlightAware
04:53PM 60.9620 22.8720 63° Northeast 488 562 33,000  Level FlightAware
04:54PM 61.0000 23.0260 63° Northeast 488 562 33,000  Level FlightAware
04:55PM 61.0350 23.1700 63° Northeast 487 560 33,000  Level FlightAware
04:55PM 61.0690 23.3120 64° Northeast 487 560 33,000  Level FlightAware
04:56PM 61.1060 23.4690 64° Northeast 486 559 33,000  Level FlightAware
04:56PM 61.1400 23.6130 64° Northeast 487 560 33,000  Level FlightAware
04:57PM 61.1740 23.7570 64° Northeast 488 562 33,000  Level FlightAware
04:57PM 61.2090 23.9080 64° Northeast 489 563 33,000  Level FlightAware
04:58PM 61.2420 24.0470 64° Northeast 489 563 33,000  Level FlightAware
04:59PM 61.2800 24.2130 64° Northeast 489 563 33,000  Level FlightAware
04:59PM 61.3130 24.3550 64° Northeast 490 564 33,000  Level FlightAware
05:00PM 61.3440 24.4950 65° Northeast 491 565 33,000  Level FlightAware
05:00PM 61.3800 24.6540 65° Northeast 489 563 33,000  Level FlightAware
05:01PM 61.4130 24.8000 65° Northeast 488 562 33,000  Level FlightAware
05:02PM 61.4460 24.9520 66° East 489 563 33,000  Level FlightAware
05:02PM 61.4780 25.0930 65° Northeast 489 563 33,000  Level FlightAware
05:03PM 61.5140 25.2580 65° Northeast 488 562 33,000  Level FlightAware
05:03PM 61.5440 25.3950 65° Northeast 489 563 33,000  Level FlightAware
05:04PM 61.5810 25.5650 65° Northeast 489 563 33,000  Level FlightAware
05:04PM 61.6090 25.6960 66° East 490 564 33,000  Level FlightAware
05:05PM 61.6430 25.8570 66° East 491 565 33,000  Level FlightAware
05:06PM 61.6740 26.0040 66° East 492 566 33,000  Level FlightAware
05:06PM 61.7070 26.1620 66° East 495 570 33,000  Level FlightAware
05:07PM 61.7400 26.3170 66° East 495 570 33,000  Level FlightAware
05:07PM 61.7700 26.4620 66° East 496 571 33,000  Level FlightAware
05:08PM 61.8050 26.6350 67° East 497 572 33,000  Level FlightAware
05:09PM 61.8370 26.7900 66° East 497 572 33,000  Level FlightAware
05:09PM 61.8690 26.9510 67° East 498 573 33,000  Level FlightAware
05:10PM 61.8990 27.0990 67° East 498 573 33,000  Level FlightAware
05:10PM 61.9290 27.2520 67° East 497 572 33,000  Level FlightAware
05:11PM 61.9600 27.4080 67° East 498 573 33,000  Level FlightAware
05:11PM 61.9860 27.5420 68° East 498 573 33,000  Level FlightAware
05:12PM 62.0200 27.7120 67° East 497 572 33,000  Level FlightAware
05:13PM 62.0520 27.8780 68° East 496 571 33,000  Level FlightAware
05:13PM 62.0790 28.0220 68° East 496 571 33,000  Level FlightAware
05:14PM 62.1110 28.1880 68° East 497 572 33,000  Level FlightAware
05:14PM 62.1420 28.3530 68° East 498 573 33,000  Level FlightAware
05:15PM 62.1720 28.5160 68° East 498 573 33,000  Level FlightAware
05:15PM 62.1980 28.6550 68° East 499 574 33,000  Level FlightAware
05:16PM 62.2290 28.8200 68° East 500 575 33,000  Level FlightAware
05:17PM 62.2600 28.9930 69° East 501 577 33,000  Level FlightAware
05:17PM 62.2890 29.1540 69° East 501 577 33,000  Level FlightAware
05:18PM 62.3170 29.3080 69° East 500 575 33,000  Level FlightAware
05:18PM 62.3360 29.4150 69° East 500 575 33,000  Level FlightAware
05:19PM 62.3630 29.5650 69° East 500 575 33,000  Level FlightAware
05:20PM 62.3890 29.7120 69° East 500 575 33,000  Level FlightAware
05:20PM 62.4140 29.8550 69° East 500 575 33,000  Level FlightAware
05:21PM 62.4560 30.1020 70° East 502 578 33,000  Level FlightAware
05:21PM 62.4820 30.2500 69° East 502 578 33,000  Level FlightAware
05:22PM 62.5070 30.3930 69° East 502 578 33,000  Level FlightAware
05:23PM 62.5310 30.5290 69° East 502 578 33,000  Level FlightAware
05:23PM 62.5580 30.6770 68° East 502 578 33,000  Level FlightAware
05:24PM 62.5840 30.8250 69° East 502 578 33,000  Level FlightAware
05:24PM 62.6090 30.9690 69° East 502 578 33,000  Level FlightAware
05:25PM 62.6350 31.1140 69° East 502 578 33,000  Level FlightAware
05:26PM 62.6600 31.2580 69° East 502 578 33,000  Level FlightAware
05:26PM 62.6860 31.4030 69° East 502 578 33,000  Level FlightAware
05:27PM 62.7120 31.5510 69° East 502 578 33,000  Level FlightAware
05:27PM 62.7360 31.6880 69° East 502 578 33,000  Level FlightAware
05:28PM 62.7610 31.8330 69° East 502 578 33,000  Level FlightAware
05:29PM 62.7870 31.9820 69° East 502 578 33,000  Level FlightAware
05:29PM 62.8130 32.1270 69° East 502 578 33,000  Level FlightAware
05:30PM 62.8400 32.2810 69° East 502 578 33,000  Level FlightAware
05:30PM 62.8660 32.4300 69° East 502 578 33,000  Level FlightAware
05:33PM 63.0090 32.9301 58° Northeast  Level Estimated
05:34PM 63.0781 33.1759 58° Northeast  Level Estimated
05:35PM 63.1467 33.4228 58° Northeast  Level Estimated
05:36PM 63.2150 33.6709 59° Northeast  Level Estimated
05:37PM 63.2828 33.9201 59° Northeast  Level Estimated
05:38PM 63.3501 34.1705 59° Northeast  Level Estimated
05:39PM 63.4170 34.4221 59° Northeast  Level Estimated
05:40PM 63.4835 34.6749 59° Northeast  Level Estimated
05:41PM 63.5496 34.9288 60° Northeast  Level Estimated
05:42PM 63.6151 35.1839 60° Northeast  Level Estimated
05:43PM 63.6803 35.4402 60° Northeast  Level Estimated
05:44PM 63.7449 35.6977 60° Northeast  Level Estimated
05:45PM 63.8092 35.9563 61° Northeast  Level Estimated
05:46PM 63.8729 36.2161 61° Northeast  Level Estimated
05:47PM 63.9362 36.4771 61° Northeast  Level Estimated
05:48PM 63.9990 36.7393 61° Northeast  Level Estimated
05:49PM 64.0613 37.0027 61° Northeast  Level Estimated
05:50PM 64.1232 37.2672 62° Northeast  Level Estimated
05:51PM 64.1845 37.5329 62° Northeast  Level Estimated
05:52PM 64.2454 37.7997 62° Northeast  Level Estimated
05:53PM 64.3058 38.0678 62° Northeast  Level Estimated
05:54PM 64.3657 38.3370 63° Northeast  Level Estimated
05:55PM 64.4251 38.6074 63° Northeast  Level Estimated
05:56PM 64.4840 38.8790 63° Northeast  Level Estimated
05:57PM 64.5424 39.1517 63° Northeast  Level Estimated
05:58PM 64.6003 39.4256 64° Northeast  Level Estimated
05:59PM 64.6577 39.7006 64° Northeast  Level Estimated
06:00PM 64.7146 39.9769 64° Northeast  Level Estimated
06:01PM 64.7710 40.2542 64° Northeast  Level Estimated
06:02PM 64.8268 40.5328 65° Northeast  Level Estimated
06:03PM 64.8821 40.8124 65° Northeast  Level Estimated
06:04PM 64.9369 41.0933 65° Northeast  Level Estimated
06:05PM 64.9912 41.3753 65° Northeast  Level Estimated
06:06PM 65.0449 41.6584 66° East  Level Estimated
06:07PM 65.0981 41.9426 66° East  Level Estimated
06:08PM 65.1507 42.2280 66° East  Level Estimated
06:09PM 65.2028 42.5145 66° East  Level Estimated
06:10PM 65.2544 42.8022 67° East  Level Estimated
06:11PM 65.3054 43.0909 67° East  Level Estimated
06:12PM 65.3559 43.3808 67° East  Level Estimated
06:13PM 65.4057 43.6718 67° East  Level Estimated
06:14PM 65.4551 43.9639 68° East  Level Estimated
06:15PM 65.5039 44.2571 68° East  Level Estimated
06:16PM 65.5520 44.5513 68° East  Level Estimated
06:17PM 65.5997 44.8467 69° East  Level Estimated
06:18PM 65.6467 45.1432 69° East  Level Estimated
06:19PM 65.6932 45.4407 69° East  Level Estimated
06:20PM 65.7391 45.7392 69° East  Level Estimated
06:21PM 65.7844 46.0389 70° East  Level Estimated
06:22PM 65.8291 46.3395 70° East  Level Estimated
06:23PM 65.8733 46.6413 70° East  Level Estimated
06:24PM 65.9168 46.9440 70° East  Level Estimated
06:25PM 65.9597 47.2478 71° East  Level Estimated
06:26PM 66.0021 47.5526 71° East  Level Estimated
06:27PM 66.0438 47.8584 71° East  Level Estimated
06:28PM 66.0850 48.1661 72° East  Level Estimated
06:29PM 66.1257 48.4748 72° East  Level Estimated
06:30PM 66.1657 48.7845 72° East  Level Estimated
06:31PM 66.2051 49.0952 72° East  Level Estimated
06:32PM 66.2438 49.4068 73° East  Level Estimated
06:33PM 66.2820 49.7194 73° East  Level Estimated
06:34PM 66.3195 50.0330 73° East  Level Estimated
06:35PM 66.3564 50.3474 74° East  Level Estimated
06:36PM 66.3926 50.6628 74° East  Level Estimated
06:37PM 66.4282 50.9791 74° East  Level Estimated
06:38PM 66.4632 51.2963 74° East  Level Estimated
06:39PM 66.4975 51.6143 75° East  Level Estimated
06:40PM 66.5312 51.9333 75° East  Level Estimated
06:41PM 66.5642 52.2531 75° East  Level Estimated
06:42PM 66.5965 52.5737 76° East  Level Estimated
06:43PM 66.6283 52.8951 76° East  Level Estimated
06:44PM 66.6593 53.2174 76° East  Level Estimated
06:45PM 66.6897 53.5405 76° East  Level Estimated
06:46PM 66.7194 53.8644 77° East  Level Estimated
06:47PM 66.7485 54.1890 77° East  Level Estimated
06:48PM 66.7769 54.5144 77° East  Level Estimated
06:49PM 66.8046 54.8406 78° East  Level Estimated
06:50PM 66.8316 55.1674 78° East  Level Estimated
06:51PM 66.8580 55.4950 78° East  Level Estimated
06:52PM 66.8837 55.8233 79° East  Level Estimated
06:53PM 66.9087 56.1522 79° East  Level Estimated
06:54PM 66.9331 56.4819 79° East  Level Estimated
06:55PM 66.9567 56.8122 79° East  Level Estimated
06:56PM 66.9797 57.1431 80° East  Level Estimated
06:57PM 67.0019 57.4746 80° East  Level Estimated
06:58PM 67.0235 57.8067 80° East  Level Estimated
06:59PM 67.0444 58.1394 81° East  Level Estimated
07:00PM 67.0646 58.4727 81° East  Level Estimated
07:01PM 67.0841 58.8065 81° East  Level Estimated
07:02PM 67.1029 59.1408 82° East  Level Estimated
07:03PM 67.1210 59.4757 82° East  Level Estimated
07:04PM 67.1384 59.8110 82° East  Level Estimated
07:05PM 67.1551 60.1468 83° East  Level Estimated
07:05PM 66.4640 63.1680 83° East 493 567 33,000  Level FlightAware
07:06PM 67.1711 60.4831 83° East  Level Estimated
07:06PM 66.4720 63.3450 83° East 494 568 33,000  Level FlightAware
07:07PM 66.4830 63.5950 84° East 495 570 33,000  Level FlightAware
07:07PM 66.4900 63.7690 84° East 495 570 33,000  Level FlightAware
07:08PM 66.5010 64.0110 83° East 493 567 33,000  Level FlightAware
07:09PM 66.5100 64.2360 84° East 493 567 33,000  Level FlightAware
07:09PM 66.5190 64.4620 84° East 499 574 33,000  Level FlightAware
07:10PM 66.5270 64.6550 84° East 501 577 33,000  Level FlightAware
07:11PM 66.5390 64.9880 85° East 497 572 33,000  Level FlightAware
07:11PM 66.5450 65.1670 85° East 498 573 33,000  Level FlightAware
07:12PM 66.5520 65.3740 85° East 498 573 33,000  Level FlightAware
07:13PM 66.5600 65.6110 85° East 500 575 33,000  Level FlightAware
07:13PM 66.5670 65.8480 86° East 502 578 33,000  Level FlightAware
07:14PM 66.5730 66.0550 86° East 500 575 33,000  Level FlightAware
07:15PM 66.5790 66.2720 86° East 500 575 33,000  Level FlightAware
07:15PM 66.5860 66.5020 86° East 502 578 33,000  Level FlightAware
07:16PM 66.5910 66.6960 86° East 503 579 33,000  Level FlightAware
07:16PM 66.5970 66.8840 85° East 506 582 33,000  Level FlightAware
07:17PM 66.6040 67.1150 86° East 508 585 33,000  Level FlightAware
07:18PM 66.6110 67.3720 86° East 506 582 33,000  Level FlightAware
07:18PM 66.6150 67.5410 87° East 505 581 33,000  Level FlightAware
07:19PM 66.6210 67.7820 86° East 503 579 33,000  Level FlightAware
07:19PM 66.6250 67.9750 87° East 503 579 33,000  Level FlightAware
07:20PM 66.6310 68.2430 87° East 504 580 33,000  Level FlightAware
07:21PM 66.6350 68.4200 87° East 504 580 33,000  Level FlightAware
07:21PM 66.6390 68.6590 87° East 505 581 33,000  Level FlightAware
07:22PM 66.6430 68.8430 87° East 506 582 33,000  Level FlightAware
07:23PM 66.6460 69.0410 88° East 504 580 33,000  Level FlightAware
07:23PM 66.6490 69.2720 88° East 504 580 33,000  Level FlightAware
07:24PM 66.6520 69.4680 88° East 504 580 33,000  Level FlightAware
07:24PM 66.6550 69.6540 88° East 504 580 33,000  Level FlightAware
07:25PM 66.6570 69.8890 89° East 506 582 33,000  Level FlightAware
07:26PM 66.6590 70.1080 89° East 508 585 33,000  Level FlightAware
07:26PM 66.6610 70.3490 89° East 509 586 33,000  Level FlightAware
07:27PM 66.6630 70.5630 89° East 509 586 33,000  Level FlightAware
07:27PM 66.6640 70.8040 89° East 510 587 33,000  Level FlightAware
07:28PM 66.6650 70.9720 89° East 510 587 33,000  Level FlightAware
07:29PM 66.6650 71.2320 90° East 511 588 33,000  Level FlightAware
07:29PM 66.6660 71.4750 89° East 511 588 33,000  Level FlightAware
07:30PM 66.6660 71.6890 90° East 512 589 33,000  Level FlightAware
07:31PM 66.6660 71.9550 90° East 512 589 33,000  Level FlightAware
07:31PM 66.6650 72.1460 91° East 512 589 33,000  Level FlightAware
07:32PM 66.6620 72.3900 92° East 512 589 33,000  Level FlightAware
07:33PM 66.6600 72.6030 91° East 513 590 33,000  Level FlightAware
07:33PM 66.6570 72.8740 91° East 514 592 33,000  Level FlightAware
07:34PM 66.6550 73.0400 92° East 514 592 33,000  Level FlightAware
07:34PM 66.6530 73.2360 91° East 514 592 33,000  Level FlightAware
07:35PM 66.6490 73.4540 93° East 514 592 33,000  Level FlightAware
07:36PM 66.6460 73.6490 92° East 514 592 33,000  Level FlightAware
07:36PM 66.6420 73.8950 92° East 515 593 33,000  Level FlightAware
07:37PM 66.6390 74.1330 92° East 514 592 33,000  Level FlightAware
07:38PM 66.6340 74.4030 93° East 515 593 33,000  Level FlightAware
07:38PM 66.6310 74.5930 92° East 514 592 33,000  Level FlightAware
07:39PM 66.6270 74.7900 93° East 513 590 33,000  Level FlightAware
07:39PM 66.6220 75.0080 93° East 513 590 33,000  Level FlightAware
07:40PM 66.6170 75.2230 93° East 514 592 33,000  Level FlightAware
07:40PM 66.6130 75.4110 93° East 515 593 33,000  Level FlightAware
07:41PM 66.6070 75.6540 93° East 516 594 33,000  Level FlightAware
07:42PM 66.6020 75.8370 94° East 515 593 33,000  Level FlightAware
07:42PM 66.5960 76.0420 94° East 511 588 33,000  Level FlightAware
07:43PM 66.5900 76.2340 94° East 509 586 33,000  Level FlightAware
07:43PM 66.5850 76.4200 94° East 507 583 33,000  Level FlightAware
07:44PM 66.5760 76.6870 95° East 507 583 33,000  Level FlightAware
07:45PM 66.5710 76.8640 94° East 506 582 33,000  Level FlightAware
07:45PM 66.5640 77.0670 95° East 506 582 33,000  Level FlightAware
07:46PM 66.5560 77.2740 95° East 507 583 33,000  Level FlightAware
07:46PM 66.5490 77.4670 95° East 506 582 33,000  Level FlightAware
07:47PM 66.5390 77.7260 95° East 506 582 33,000  Level FlightAware
07:47PM 66.5330 77.8880 95° East 507 583 33,000  Level FlightAware
07:48PM 66.5250 78.0790 96° East 507 583 33,000  Level FlightAware
07:49PM 66.5140 78.3370 96° East 508 585 33,000  Level FlightAware
07:49PM 66.5060 78.5080 97° East 508 585 33,000  Level FlightAware
07:50PM 66.4980 78.6850 96° East 508 585 33,000  Level FlightAware
07:50PM 66.4890 78.8880 96° East 509 586 33,000  Level FlightAware
07:51PM 66.4780 79.1200 97° East 509 586 33,000  Level FlightAware
07:52PM 66.4660 79.3620 97° East 510 587 33,000  Level FlightAware
07:52PM 66.4550 79.5700 97° East 512 589 33,000  Level FlightAware
07:53PM 66.4450 79.7640 97° East 512 589 33,000  Level FlightAware
07:53PM 66.4330 79.9980 97° East 512 589 33,000  Level FlightAware
07:54PM 66.4230 80.1880 97° East 511 588 33,000  Level FlightAware
07:55PM 66.4100 80.4170 98° East 512 589 33,000  Level FlightAware
07:55PM 66.3980 80.6170 98° East 512 589 33,000  Level FlightAware
07:56PM 66.3850 80.8270 99° East 512 589 33,000  Level FlightAware
07:57PM 66.3710 81.0670 98° East 513 590 33,000  Level FlightAware
07:57PM 66.3560 81.3030 99° East 515 593 33,000  Level FlightAware
07:58PM 66.3430 81.5110 99° East 515 593 33,000  Level FlightAware
07:58PM 66.3350 81.6360 99° East 515 593 33,000  Level FlightAware
07:59PM 66.3240 81.8150 99° East 515 593 33,000  Level FlightAware
08:00PM 66.3120 81.9940 99° East 515 593 33,000  Level FlightAware
08:00PM 66.3010 82.1730 99° East 515 593 33,000  Level FlightAware
08:01PM 66.2890 82.3620 99° East 515 593 33,000  Level FlightAware
08:01PM 66.2770 82.5410 99° East 515 593 33,000  Level FlightAware
08:02PM 66.2660 82.7200 99° East 515 593 33,000  Level FlightAware
08:03PM 66.2550 82.8990 99° East 515 593 33,000  Level FlightAware
08:03PM 66.2430 83.0780 99° East 515 593 33,000  Level FlightAware
08:04PM 66.2320 83.2570 99° East 515 593 33,000  Level FlightAware
08:04PM 66.2200 83.4350 99° East 515 593 33,000  Level FlightAware
08:05PM 66.2090 83.6140 99° East 515 593 33,000  Level FlightAware
08:06PM 66.1970 83.7920 99° East 515 593 33,000  Level FlightAware
08:06PM 66.1860 83.9710 99° East 515 593 33,000  Level FlightAware
08:07PM 66.1740 84.1490 99° East 515 593 33,000  Level FlightAware
08:07PM 66.1630 84.3270 99° East 515 593 33,000  Level FlightAware
08:10PM 66.0892 85.0013 105° East  Level Estimated
08:11PM 66.0539 85.3135 105° East  Level Estimated
08:12PM 66.0179 85.6249 106° East  Level Estimated
08:13PM 65.9813 85.9354 106° East  Level Estimated
08:14PM 65.9441 86.2450 106° East  Level Estimated
08:15PM 65.9063 86.5537 107° East  Level Estimated
08:16PM 65.8678 86.8615 107° East  Level Estimated
08:17PM 65.8288 87.1683 107° East  Level Estimated
08:18PM 65.7891 87.4742 107° East  Level Estimated
08:19PM 65.7488 87.7792 108° East  Level Estimated
08:20PM 65.7079 88.0832 108° East  Level Estimated
08:21PM 65.6664 88.3863 108° East  Level Estimated
08:22PM 65.6243 88.6883 109° East  Level Estimated
08:23PM 65.5816 88.9894 109° East  Level Estimated
08:24PM 65.5384 89.2895 109° East  Level Estimated
08:25PM 65.4945 89.5886 109° East  Level Estimated
08:26PM 65.4500 89.8866 110° East  Level Estimated
08:27PM 65.4050 90.1837 110° East  Level Estimated
08:28PM 65.3594 90.4797 110° East  Level Estimated
08:29PM 65.3132 90.7747 110° East  Level Estimated
08:30PM 65.2664 91.0687 111° Southeast  Level Estimated
08:31PM 65.2190 91.3616 111° Southeast  Level Estimated
08:32PM 65.1711 91.6535 111° Southeast  Level Estimated
08:33PM 65.1226 91.9443 112° Southeast  Level Estimated
08:34PM 65.0736 92.2340 112° Southeast  Level Estimated
08:35PM 65.0240 92.5226 112° Southeast  Level Estimated
08:36PM 64.9738 92.8102 112° Southeast  Level Estimated
08:37PM 64.9231 93.0967 113° Southeast  Level Estimated
08:38PM 64.8719 93.3821 113° Southeast  Level Estimated
08:39PM 64.8202 93.6660 113° Southeast  Level Estimated
08:40PM 64.7679 93.9488 113° Southeast  Level Estimated
08:41PM 64.7151 94.2305 114° Southeast  Level Estimated
08:42PM 64.6618 94.5111 114° Southeast  Level Estimated
08:43PM 64.6079 94.7906 114° Southeast  Level Estimated
08:44PM 64.5536 95.0690 114° Southeast  Level Estimated
08:45PM 64.4986 95.3463 115° Southeast  Level Estimated
08:46PM 64.4432 95.6224 115° Southeast  Level Estimated
08:47PM 64.3873 95.8975 115° Southeast  Level Estimated
08:48PM 64.3308 96.1714 115° Southeast  Level Estimated
08:49PM 64.2739 96.4442 116° Southeast  Level Estimated
08:50PM 64.2164 96.7158 116° Southeast  Level Estimated
08:51PM 64.1584 96.9863 116° Southeast  Level Estimated
08:52PM 64.1000 97.2557 116° Southeast  Level Estimated
08:53PM 64.0410 97.5240 117° Southeast  Level Estimated
08:54PM 63.9815 97.7911 117° Southeast  Level Estimated
08:55PM 63.9216 98.0571 117° Southeast  Level Estimated
08:56PM 63.8611 98.3219 117° Southeast  Level Estimated
08:57PM 63.8002 98.5856 118° Southeast  Level Estimated
08:58PM 63.7388 98.8482 118° Southeast  Level Estimated
08:59PM 63.6770 99.1096 118° Southeast  Level Estimated
09:00PM 63.6146 99.3699 118° Southeast  Level Estimated
09:01PM 63.5518 99.6290 118° Southeast  Level Estimated
09:02PM 63.4886 99.8870 119° Southeast  Level Estimated
09:03PM 63.4248 100.1438 119° Southeast  Level Estimated
09:04PM 63.3606 100.3995 119° Southeast  Level Estimated
09:05PM 63.2960 100.6541 119° Southeast  Level Estimated
09:06PM 63.2309 100.9075 120° Southeast  Level Estimated
09:07PM 63.1653 101.1598 120° Southeast  Level Estimated
09:08PM 63.0993 101.4109 120° Southeast  Level Estimated
09:09PM 63.0329 101.6609 120° Southeast  Level Estimated
09:10PM 62.9660 101.9097 121° Southeast  Level Estimated
09:11PM 62.8987 102.1574 121° Southeast  Level Estimated
09:12PM 62.8310 102.4040 121° Southeast  Level Estimated
09:13PM 62.7628 102.6494 121° Southeast  Level Estimated
09:14PM 62.6942 102.8937 121° Southeast  Level Estimated
09:15PM 62.6252 103.1369 122° Southeast  Level Estimated
09:16PM 62.5557 103.3789 122° Southeast  Level Estimated
09:17PM 62.4859 103.6198 122° Southeast  Level Estimated
09:18PM 62.4156 103.8596 122° Southeast  Level Estimated
09:19PM 62.3449 104.0982 122° Southeast  Level Estimated
09:20PM 62.2738 104.3357 123° Southeast  Level Estimated
09:21PM 62.2023 104.5721 123° Southeast  Level Estimated
09:22PM 62.1305 104.8074 123° Southeast  Level Estimated
09:23PM 62.0582 105.0416 123° Southeast  Level Estimated
09:24PM 61.9855 105.2746 124° Southeast  Level Estimated
09:25PM 61.9124 105.5066 124° Southeast  Level Estimated
09:26PM 61.8390 105.7374 124° Southeast  Level Estimated
09:27PM 61.7651 105.9671 124° Southeast  Level Estimated
09:28PM 61.6909 106.1957 124° Southeast  Level Estimated
09:29PM 61.6163 106.4232 125° Southeast  Level Estimated
09:30PM 61.5413 106.6497 125° Southeast  Level Estimated
09:31PM 61.4659 106.8750 125° Southeast  Level Estimated
09:32PM 61.3902 107.0992 125° Southeast  Level Estimated
09:33PM 61.3141 107.3224 125° Southeast  Level Estimated
09:34PM 61.2376 107.5445 126° Southeast  Level Estimated
09:35PM 61.1608 107.7654 126° Southeast  Level Estimated
09:36PM 61.0836 107.9854 126° Southeast  Level Estimated
09:37PM 61.0061 108.2042 126° Southeast  Level Estimated
09:38PM 60.9282 108.4220 126° Southeast  Level Estimated
09:39PM 60.8500 108.6387 126° Southeast  Level Estimated
09:40PM 60.7714 108.8543 127° Southeast  Level Estimated
09:41PM 60.6925 109.0689 127° Southeast  Level Estimated
09:42PM 60.6132 109.2824 127° Southeast  Level Estimated
09:43PM 60.5336 109.4949 127° Southeast  Level Estimated
09:44PM 60.4537 109.7064 127° Southeast  Level Estimated
09:45PM 60.3734 109.9168 128° Southeast  Level Estimated
09:46PM 60.2928 110.1261 128° Southeast  Level Estimated
09:47PM 60.2118 110.3345 128° Southeast  Level Estimated
09:48PM 60.1306 110.5418 128° Southeast  Level Estimated
09:49PM 60.0490 110.7480 128° Southeast  Level Estimated
09:50PM 59.9671 110.9533 129° Southeast  Level Estimated
09:51PM 59.8849 111.1575 129° Southeast  Level Estimated
09:52PM 59.8023 111.3608 129° Southeast  Level Estimated
09:53PM 59.7195 111.5630 129° Southeast  Level Estimated
09:54PM 59.6363 111.7643 129° Southeast  Level Estimated
09:55PM 59.5529 111.9645 129° Southeast  Level Estimated
09:56PM 59.4691 112.1637 130° Southeast  Level Estimated
09:57PM 59.3851 112.3620 130° Southeast  Level Estimated
09:58PM 59.3007 112.5592 130° Southeast  Level Estimated
09:59PM 59.2160 112.7555 130° Southeast  Level Estimated
10:00PM 59.1311 112.9509 130° Southeast  Level Estimated
10:01PM 59.0458 113.1452 130° Southeast  Level Estimated
10:02PM 58.9603 113.3386 131° Southeast  Level Estimated
10:03PM 58.8745 113.5310 131° Southeast  Level Estimated
10:04PM 58.7883 113.7225 131° Southeast  Level Estimated
10:05PM 58.7020 113.9130 131° Southeast  Level Estimated
10:06PM 58.6153 114.1026 131° Southeast  Level Estimated
10:07PM 58.5283 114.2913 131° Southeast  Level Estimated
10:08PM 58.4411 114.4790 132° Southeast  Level Estimated
10:09PM 58.3536 114.6658 132° Southeast  Level Estimated
10:10PM 58.2658 114.8516 132° Southeast  Level Estimated
10:11PM 58.1778 115.0366 132° Southeast  Level Estimated
10:12PM 58.0895 115.2206 132° Southeast  Level Estimated
10:13PM 58.0009 115.4037 132° Southeast  Level Estimated
10:13PM 58.9290 120.0930 133° Southeast 493 567 35,000  Level FlightAware
10:14PM 57.9121 115.5859 133° Southeast  Level Estimated
10:14PM 58.8840 120.2110 126° Southeast 493 567 35,000  Level FlightAware
10:15PM 58.8970 120.1780 307° West 493 567 35,000  Level FlightAware
10:15PM 58.8560 120.2870 126° Southeast 493 567 35,000  Level FlightAware
10:16PM 58.8140 120.3960 127° Southeast 493 567 35,000  Level FlightAware
10:17PM 58.7730 120.5050 126° Southeast 493 567 35,000  Level FlightAware
10:17PM 58.7320 120.6140 126° Southeast 493 567 35,000  Level FlightAware
10:18PM 58.9290 120.0930 306° West 35,000  Level FlightAware
10:19PM 58.3970 121.2980 141° Southeast 496 571 35,000  Level FlightAware
10:20PM 58.7513 120.3678 141° Southeast  Level Estimated
10:20PM 58.3320 121.4210 135° Southeast 496 571 35,000  Level FlightAware
10:21PM 58.3190 121.4460 135° Southeast 497 572 35,000  Level FlightAware
10:21PM 58.1990 121.6740 135° Southeast 498 573 35,000  Level FlightAware
10:22PM 58.1280 121.8060 136° Southeast 499 574 35,000  Level FlightAware
10:23PM 58.0580 121.9380 135° Southeast 499 574 35,000  Level FlightAware
10:24PM 57.9910 122.0620 136° Southeast 501 577 35,000  Level FlightAware
10:24PM 57.9290 122.1750 136° Southeast 500 575 35,000  Level FlightAware
10:25PM 57.8940 122.2390 136° Southeast 500 575 35,000  Level FlightAware
10:26PM 57.7750 122.4570 136° Southeast 497 572 35,000  Level FlightAware
10:26PM 57.7130 122.5680 136° Southeast 497 572 35,000  Level FlightAware
10:27PM 57.6540 122.6740 136° Southeast 497 572 35,000  Level FlightAware
10:28PM 57.6030 122.7660 136° Southeast 497 572 35,000  Level FlightAware
10:28PM 57.5480 122.8640 136° Southeast 496 571 35,000  Level FlightAware
10:29PM 57.4750 122.9930 136° Southeast 497 572 35,000  Level FlightAware
10:29PM 57.4360 123.0630 136° Southeast 498 573 35,000  Level FlightAware
10:30PM 57.3680 123.1830 136° Southeast 499 574 35,000  Level FlightAware
10:30PM 57.3090 123.2860 137° Southeast 499 574 35,000  Level FlightAware
10:31PM 57.2510 123.3860 137° Southeast 498 573 35,000  Level FlightAware
10:32PM 57.1930 123.4870 137° Southeast 498 573 35,000  Level FlightAware
10:32PM 57.1240 123.6060 137° Southeast 497 572 35,000  Level FlightAware
10:33PM 57.0760 123.6880 137° Southeast 497 572 35,000  Level FlightAware
10:33PM 57.0190 123.7860 137° Southeast 498 573 35,000  Level FlightAware
10:34PM 56.9490 123.9060 137° Southeast 497 572 35,000  Level FlightAware
10:35PM 56.8990 123.9900 137° Southeast 496 571 35,000  Level FlightAware
10:35PM 56.8530 124.0670 138° Southeast 496 571 35,000  Level FlightAware
10:36PM 56.7600 124.2230 137° Southeast 496 571 35,000  Level FlightAware
10:37PM 56.6380 124.4270 137° Southeast 496 571 35,000  Level FlightAware
10:38PM 56.5520 124.5680 138° Southeast 499 574 35,000  Level FlightAware
10:39PM 56.4610 124.7190 137° Southeast 500 575 35,000  Level FlightAware
10:39PM 56.4020 124.8140 138° Southeast 502 578 35,000  Level FlightAware
10:40PM 56.3360 124.9210 138° Southeast 500 575 35,000  Level FlightAware
10:41PM 56.2770 125.0160 138° Southeast 500 575 35,000  Level FlightAware
10:41PM 56.2230 125.1030 138° Southeast 500 575 35,000  Level FlightAware
10:42PM 56.1710 125.1890 137° Southeast 500 575 35,000  Level FlightAware
10:43PM 56.1180 125.2740 138° Southeast 500 575 35,000  Level FlightAware
10:43PM 56.0650 125.3580 138° Southeast 500 575 35,000  Level FlightAware
10:44PM 56.0130 125.4430 138° Southeast 500 575 35,000  Level FlightAware
10:44PM 55.9590 125.5300 138° Southeast 500 575 35,000  Level FlightAware
10:45PM 55.9060 125.6150 138° Southeast 500 575 35,000  Level FlightAware
10:46PM 55.8540 125.6990 138° Southeast 500 575 35,000  Level FlightAware
10:46PM 55.8000 125.7860 138° Southeast 500 575 35,000  Level FlightAware
10:47PM 55.7450 125.8720 139° Southeast 500 575 35,000  Level FlightAware
10:47PM 55.6930 125.9560 138° Southeast 500 575 35,000  Level FlightAware
10:48PM 55.6400 126.0400 138° Southeast 500 575 35,000  Level FlightAware
10:49PM 55.5880 126.1240 138° Southeast 500 575 35,000  Level FlightAware
10:49PM 55.5350 126.2080 138° Southeast 500 575 35,000  Level FlightAware
10:50PM 55.4820 126.2920 138° Southeast 500 575 35,000 60 Level FlightAware
10:52PM 55.2942 126.4972 148° Southeast  Level Estimated
10:53PM 55.1825 126.6182 148° Southeast  Level Estimated
10:54PM 55.0707 126.7385 148° Southeast  Level Estimated
10:55PM 54.9588 126.8581 148° Southeast  Level Estimated
10:56PM 54.8467 126.9771 149° Southeast  Level Estimated
10:57PM 54.7346 127.0954 149° Southeast  Level Estimated
10:58PM 54.6223 127.2131 149° Southeast  Level Estimated
10:59PM 54.5099 127.3301 149° Southeast  Level Estimated
11:00PM 54.3974 127.4465 149° Southeast  Level Estimated
11:01PM 54.2847 127.5622 149° Southeast  Level Estimated
11:02PM 54.1720 127.6773 149° Southeast  Level Estimated
11:03PM 54.0592 127.7918 149° Southeast  Level Estimated
11:04PM 53.9460 127.9058 149° Southeast  Level Estimated
11:05PM 53.8328 128.0192 149° Southeast  Level Estimated
11:06PM 53.7195 128.1320 149° Southeast  Level Estimated
11:07PM 53.6060 128.2442 150° Southeast  Level Estimated
11:08PM 53.4925 128.3558 150° Southeast  Level Estimated
11:09PM 53.3788 128.4668 150° Southeast  Level Estimated
11:10PM 53.2651 128.5772 150° Southeast  Level Estimated
11:11PM 53.1512 128.6870 150° Southeast  Level Estimated
11:12PM 53.0373 128.7963 150° Southeast  Level Estimated
11:13PM 52.9232 128.9049 150° Southeast  Level Estimated
11:13PM 52.8730 130.0550 150° Southeast 518 596 37,000  Level FlightAware
11:14PM 52.8150 130.1350 140° Southeast 518 596 37,000  Level FlightAware
11:14PM 52.7590 130.2130 140° Southeast 518 596 37,000  Level FlightAware
11:15PM 52.6870 130.3120 140° Southeast 518 596 37,000  Level FlightAware
11:16PM 52.6310 130.3900 140° Southeast 518 596 37,000  Level FlightAware
11:16PM 52.5750 130.4670 140° Southeast 518 596 37,000  Level FlightAware
11:17PM 52.5190 130.5450 140° Southeast 518 596 37,000  Level FlightAware
11:17PM 52.4620 130.6220 141° Southeast 518 596 37,000  Level FlightAware
11:18PM 52.4060 130.7000 140° Southeast 518 596 37,000  Level FlightAware
11:19PM 52.3500 130.7770 140° Southeast 518 596 37,000  Level FlightAware
11:19PM 52.2920 130.8560 140° Southeast 518 596 37,000  Level FlightAware
11:20PM 52.2360 130.9330 140° Southeast 518 596 37,000  Level FlightAware
11:20PM 52.1800 131.0100 140° Southeast 518 596 37,000  Level FlightAware
11:21PM 52.1240 131.0870 140° Southeast 518 596 37,000  Level FlightAware
11:22PM 52.0680 131.1640 140° Southeast 518 596 37,000  Level FlightAware
11:22PM 52.0100 131.2420 140° Southeast 518 596 37,000  Level FlightAware
11:23PM 51.9520 131.3210 140° Southeast 518 596 37,000  Level FlightAware
11:25PM 51.7498 131.4751 155° Southeast  Level Estimated
11:26PM 51.6307 131.5652 155° Southeast  Level Estimated
11:27PM 51.5116 131.6547 155° Southeast  Level Estimated
11:28PM 51.3924 131.7438 155° Southeast  Level Estimated
11:29PM 51.2732 131.8324 155° Southeast  Level Estimated
11:30PM 51.1538 131.9206 155° Southeast  Level Estimated
11:30PM 50.8790 132.5690 155° Southeast 518 596 37,000  Level FlightAware
11:31PM 50.8170 132.6370 145° Southeast 518 596 37,000  Level FlightAware
11:31PM 50.7310 132.7330 145° Southeast 520 598 37,000  Level FlightAware
11:32PM 50.6620 132.8090 145° Southeast 520 598 37,000  Level FlightAware
11:33PM 50.5930 132.8850 145° Southeast 521 600 37,000  Level FlightAware
11:33PM 50.5260 132.9590 145° Southeast 522 601 37,000  Level FlightAware
11:34PM 50.4550 133.0360 145° Southeast 521 600 37,000  Level FlightAware
11:34PM 50.3860 133.1120 145° Southeast 522 601 37,000  Level FlightAware
11:35PM 50.3070 133.1970 145° Southeast 520 598 37,000  Level FlightAware
11:36PM 50.2480 133.2610 145° Southeast 520 598 37,000  Level FlightAware
11:36PM 50.1780 133.3360 146° Southeast 520 598 37,000  Level FlightAware
11:37PM 50.1090 133.4100 145° Southeast 521 600 37,000  Level FlightAware
11:37PM 50.0390 133.4840 146° Southeast 520 598 37,000  Level FlightAware
11:38PM 49.9700 133.5570 146° Southeast 517 595 37,000  Level FlightAware
11:38PM 49.9000 133.6300 146° Southeast 516 594 37,000  Level FlightAware
11:39PM 49.8220 133.7120 146° Southeast 513 590 37,000  Level FlightAware
11:40PM 49.7540 133.7820 146° Southeast 512 589 37,000  Level FlightAware
11:40PM 49.6940 133.8440 146° Southeast 511 588 37,000  Level FlightAware
11:41PM 49.6260 133.9150 146° Southeast 510 587 37,000  Level FlightAware
11:41PM 49.5560 133.9870 146° Southeast 510 587 37,000  Level FlightAware
11:42PM 49.4810 134.0640 146° Southeast 509 586 37,000  Level FlightAware
11:43PM 49.4300 134.1160 146° Southeast 510 587 37,000  Level FlightAware
11:43PM 49.3460 134.2020 146° Southeast 511 588 37,000  Level FlightAware
11:44PM 49.2930 134.2560 146° Southeast 513 590 37,000  Level FlightAware
11:44PM 49.2210 134.3290 146° Southeast 514 592 37,000  Level FlightAware
11:45PM 49.1400 134.4110 146° Southeast 518 596 37,000  Level FlightAware
11:46PM 49.0690 134.4900 144° Southeast 526 605 37,000  Level FlightAware
11:46PM 49.0260 134.5480 138° Southeast 529 609 37,000  Level FlightAware
11:47PM 48.9590 134.6410 138° Southeast 530 610 37,000  Level FlightAware
11:47PM 48.8930 134.7330 137° Southeast 530 610 37,000  Level FlightAware
11:48PM 48.8090 134.8500 137° Southeast 530 610 37,000  Level FlightAware
11:49PM 48.7410 134.9440 138° Southeast 530 610 37,000  Level FlightAware
11:49PM 48.6800 135.0270 138° Southeast 530 610 37,000  Level FlightAware
11:50PM 48.6260 135.1000 138° Southeast 530 610 37,000  Level FlightAware
11:50PM 48.5400 135.1970 143° Southeast 508 585 37,000  Level FlightAware
11:51PM 48.4730 135.2280 163° South 487 560 37,000  Level FlightAware
11:51PM 48.4060 135.2450 170° South 484 557 37,000  Level FlightAware
11:52PM 48.3260 135.2640 171° South 482 555 37,000  Level FlightAware
11:53PM 48.2450 135.2840 171° South 481 554 37,000  Level FlightAware
11:53PM 48.1660 135.3030 171° South 481 554 37,000  Level FlightAware
11:54PM 48.1020 135.3180 171° South 481 554 37,000  Level FlightAware
11:54PM 48.0210 135.3380 171° South 480 552 37,000  Level FlightAware
11:55PM 47.9410 135.3570 171° South 476 548 37,000  Level FlightAware
11:56PM 47.8590 135.3770 171° South 475 547 37,000  Level FlightAware
11:56PM 47.7780 135.3960 171° South 478 550 37,000  Level FlightAware
11:57PM 47.6910 135.4170 171° South 477 549 37,000  Level FlightAware
11:57PM 47.6230 135.4330 171° South 476 548 37,000  Level FlightAware
11:58PM 47.5390 135.4530 171° South 475 547 37,000  Level FlightAware
11:59PM 47.4640 135.4710 171° South 476 548 37,000  Level FlightAware
11:59PM 47.3890 135.4880 171° South 476 548 37,000  Level FlightAware
12:00AM 47.3010 135.5090 171° South 478 550 37,000  Level FlightAware
12:00AM 47.2250 135.5270 171° South 479 551 37,000  Level FlightAware
12:01AM 47.1480 135.5450 171° South 482 555 37,000  Level FlightAware
12:02AM 47.0710 135.5630 171° South 486 559 37,000  Level FlightAware
12:02AM 46.9930 135.5810 171° South 487 560 37,000  Level FlightAware
12:03AM 46.9180 135.5980 171° South 488 562 37,000  Level FlightAware
12:03AM 46.8380 135.6170 171° South 488 562 37,000  Level FlightAware
12:04AM 46.7590 135.6360 171° South 488 562 37,000  Level FlightAware
12:04AM 46.6820 135.6560 170° South 485 558 37,000  Level FlightAware
12:05AM 46.6050 135.6760 170° South 481 554 37,000  Level FlightAware
12:06AM 46.5290 135.6950 170° South 479 551 37,000  Level FlightAware
12:06AM 46.4520 135.7140 170° South 478 550 37,000  Level FlightAware
12:07AM 46.3760 135.7330 170° South 480 552 37,000  Level FlightAware
12:07AM 46.3000 135.7510 171° South 480 552 37,000  Level FlightAware
12:08AM 46.2010 135.7740 171° South 481 554 37,000  Level FlightAware
12:09AM 46.1350 135.7890 171° South 481 554 37,000  Level FlightAware
12:09AM 46.0580 135.8070 171° South 478 550 37,000  Level FlightAware
12:10AM 45.9720 135.8280 170° South 471 542 37,000  Level FlightAware
12:10AM 45.9010 135.8450 171° South 469 540 37,000  Level FlightAware
12:11AM 45.8200 135.8640 171° South 469 540 37,000  Level FlightAware
12:12AM 45.7490 135.8810 171° South 470 541 37,000  Level FlightAware
12:12AM 45.6740 135.8980 171° South 470 541 37,000  Level FlightAware
12:13AM 45.5780 135.9210 170° South 470 541 37,000  Level FlightAware
12:14AM 45.5050 135.9380 171° South 470 541 37,000  Level FlightAware
12:14AM 45.4250 135.9560 171° South 470 541 37,000  Level FlightAware
12:15AM 45.3520 135.9730 171° South 470 541 37,000  Level FlightAware
12:15AM 45.2730 135.9920 170° South 470 541 37,000  Level FlightAware
12:16AM 45.1770 136.0140 171° South 470 541 37,000  Level FlightAware
12:17AM 45.1040 136.0310 171° South 470 541 37,000  Level FlightAware
12:17AM 45.0310 136.0480 171° South 470 541 37,000  Level FlightAware
12:18AM 44.9650 136.0620 171° South 470 541 37,000  Level FlightAware
12:19AM 44.8990 136.0770 171° South 470 541 37,000  Level FlightAware
12:19AM 44.8340 136.0920 171° South 470 541 37,000  Level FlightAware
12:20AM 44.7680 136.1060 171° South 470 541 37,000  Level FlightAware
12:20AM 44.7020 136.1210 171° South 470 541 37,000  Level FlightAware
12:21AM 44.6180 136.1400 171° South 470 541 37,000  Level FlightAware
12:22AM 44.4800 136.1730 170° South 457 526 37,000  Level FlightAware
12:22AM 44.4030 136.1900 171° South 458 527 37,000  Level FlightAware
12:23AM 44.3310 136.2060 171° South 458 527 37,000  Level FlightAware
12:23AM 44.2620 136.2220 171° South 458 527 37,000  Level FlightAware
12:24AM 44.1980 136.2360 171° South 458 527 37,000  Level FlightAware
12:25AM 44.1340 136.2500 171° South 458 527 37,000  Level FlightAware
12:25AM 44.0680 136.2650 171° South 458 527 37,000  Level FlightAware
12:26AM 44.0020 136.2790 171° South 458 527 37,000  Level FlightAware
12:26AM 43.9360 136.2940 171° South 458 527 37,000  Level FlightAware
12:27AM 43.8720 136.3080 171° South 458 527 37,000  Level FlightAware
12:28AM 43.8080 136.3220 171° South 458 527 37,000  Level FlightAware
12:28AM 43.7420 136.3360 171° South 458 527 37,000  Level FlightAware
12:29AM 43.6780 136.3500 171° South 458 527 37,000  Level FlightAware
12:30AM 43.6140 136.3640 171° South 458 527 37,000  Level FlightAware
12:30AM 43.5500 136.3780 171° South 458 527 37,000  Level FlightAware
12:31AM 43.4860 136.3920 171° South 458 527 37,000  Level FlightAware
12:31AM 43.4220 136.4060 171° South 458 527 37,000  Level FlightAware
12:32AM 43.3620 136.4190 171° South 458 527 37,000  Level FlightAware
12:32AM 43.2980 136.4330 171° South 458 527 37,000  Level FlightAware
12:35AM 43.0528 136.5776 157° South  Level Estimated
12:36AM 42.9321 136.6483 157° South  Level Estimated
12:36AM 42.7220 136.5600 157° South 455 524 37,000  Level FlightAware
12:36AM 42.6400 136.5770 171° South 455 524 37,000  Level FlightAware
12:37AM 42.5630 136.5930 171° South 455 524 37,000  Level FlightAware
12:38AM 42.4960 136.6080 171° South 455 524 37,000  Level FlightAware
12:38AM 42.4320 136.6210 171° South 455 524 37,000  Level FlightAware
12:40AM 42.1310 136.6840 171° South 470 541 37,000  Level FlightAware
12:41AM 42.0630 136.6980 171° South 470 541 37,000  Level FlightAware
12:41AM 41.9750 136.7160 171° South 471 542 37,000  Level FlightAware
12:42AM 41.8820 136.7360 171° South 472 543 37,000  Level FlightAware
12:43AM 41.8040 136.7520 171° South 472 543 37,000  Level FlightAware
12:43AM 41.7420 136.7640 172° South 473 544 37,000  Level FlightAware
12:44AM 41.6560 136.7850 170° South 482 555 37,000  Level FlightAware
12:44AM 41.5760 136.8170 163° South 493 567 37,000  Level FlightAware
12:45AM 41.5030 136.8540 159° South 496 571 37,000  Level FlightAware
12:46AM 41.4180 136.9190 150° Southeast 504 580 37,000  Level FlightAware
12:46AM 41.3500 136.9710 150° Southeast 504 580 37,000  Level FlightAware
12:47AM 41.2750 137.0280 150° Southeast 505 581 37,000  Level FlightAware
12:47AM 41.2120 137.0750 151° Southeast 505 581 37,000  Level FlightAware
12:48AM 41.1330 137.1330 151° Southeast 511 588 37,000  Level FlightAware
12:49AM 41.0590 137.1880 151° Southeast 511 588 37,000  Level FlightAware
12:49AM 40.9960 137.2350 151° Southeast 511 588 37,000  Level FlightAware
12:50AM 40.9130 137.2960 151° Southeast 511 588 37,000  Level FlightAware
12:50AM 40.8350 137.3530 151° Southeast 513 590 37,000  Level FlightAware
12:51AM 40.7710 137.3990 151° Southeast 514 592 37,000  Level FlightAware
12:52AM 40.6960 137.4540 151° Southeast 517 595 37,000  Level FlightAware
12:52AM 40.6200 137.5100 151° Southeast 513 590 37,000  Level FlightAware
12:53AM 40.5560 137.5560 151° Southeast 513 590 37,000  Level FlightAware
12:53AM 40.4820 137.6100 151° Southeast 514 592 37,000  Level FlightAware
12:54AM 40.4020 137.6680 151° Southeast 514 592 37,000  Level FlightAware
12:54AM 40.3350 137.7160 151° Southeast 514 592 37,000  Level FlightAware
12:55AM 40.2530 137.7750 151° Southeast 514 592 37,000  Level FlightAware
12:56AM 40.1850 137.8240 151° Southeast 514 592 37,000  Level FlightAware
12:56AM 40.1100 137.8780 151° Southeast 515 593 37,000  Level FlightAware
12:57AM 40.0300 137.9350 151° Southeast 515 593 37,000  Level FlightAware
12:57AM 39.9610 137.9840 151° Southeast 516 594 37,000  Level FlightAware
12:58AM 39.8900 138.0340 152° Southeast 515 593 37,000  Level FlightAware
12:59AM 39.8160 138.0870 151° Southeast 517 595 37,000  Level FlightAware
12:59AM 39.7390 138.1410 152° Southeast 518 596 37,000  Level FlightAware
01:00AM 39.6580 138.1980 152° Southeast 517 595 37,000  Level FlightAware
01:00AM 39.5840 138.2500 152° Southeast 517 595 37,000  Level FlightAware
01:01AM 39.5090 138.3030 151° Southeast 517 595 37,000  Level FlightAware
01:01AM 39.4340 138.3560 151° Southeast 517 595 37,000  Level FlightAware
01:02AM 39.3470 138.4160 152° Southeast 514 592 37,000  Level FlightAware
01:03AM 39.2730 138.4680 151° Southeast 510 587 37,000  Level FlightAware
01:03AM 39.2030 138.5160 152° Southeast 494 568 37,000 -360 Level FlightAware
01:04AM 39.1300 138.5660 152° Southeast 495 570 36,600 -1,380 Descending FlightAware
01:04AM 39.0620 138.6130 152° Southeast 492 566 35,400 -2,580 Descending FlightAware
01:05AM 38.9880 138.6630 152° Southeast 492 566 33,600 -2,880 Descending FlightAware
01:06AM 38.9190 138.7110 152° Southeast 492 566 32,100 -2,340 Descending FlightAware
01:06AM 38.8570 138.7530 152° Southeast 494 568 31,100 -960 Descending FlightAware
01:07AM 38.7760 138.8090 152° Southeast 492 566 31,000 -120 Descending FlightAware
01:07AM 38.7030 138.8580 152° Southeast 492 566 31,000  Level FlightAware
01:08AM 38.6340 138.9050 152° Southeast 488 562 31,000  Level FlightAware
01:09AM 38.5640 138.9520 152° Southeast 488 562 31,000  Level FlightAware
01:09AM 38.4950 138.9990 152° Southeast 479 551 31,000  Level FlightAware
01:10AM 38.4410 139.0360 152° Southeast 478 550 31,000  Level FlightAware
01:10AM 38.3510 139.0960 152° Southeast 485 558 31,000  Level FlightAware
01:11AM 38.3210 139.1160 152° Southeast 485 558 31,000  Level FlightAware
01:11AM 38.2250 139.1800 152° Southeast 489 563 31,000  Level FlightAware
01:12AM 38.1480 139.2320 152° Southeast 490 564 31,000  Level FlightAware
01:13AM 38.0800 139.2770 152° Southeast 490 564 31,000  Level FlightAware
01:13AM 38.0090 139.3250 152° Southeast 488 562 31,000  Level FlightAware
01:14AM 37.9400 139.3710 152° Southeast 478 550 31,000 -180 Level FlightAware
01:14AM 37.8700 139.4200 151° Southeast 484 557 30,800 -540 Descending FlightAware
01:15AM 37.8020 139.4710 149° Southeast 472 543 30,400 -1,020 Descending FlightAware
01:16AM 37.7360 139.5210 149° Southeast 473 544 29,600 -1,140 Descending FlightAware
01:16AM 37.6590 139.5780 150° Southeast 469 540 29,000 -1,080 Descending FlightAware
01:17AM 37.5910 139.6270 150° Southeast 469 540 28,300 -1,140 Descending FlightAware
01:17AM 37.5240 139.6760 150° Southeast 469 540 27,700 -1,020 Descending FlightAware
01:18AM 37.4570 139.7240 150° Southeast 466 536 27,100 -960 Descending FlightAware
01:19AM 37.3790 139.7810 150° Southeast 464 534 26,500 -960 Descending FlightAware
01:19AM 37.3120 139.8300 150° Southeast 473 544 25,900 -1,020 Descending FlightAware
01:20AM 37.2430 139.8800 150° Southeast 477 549 25,300 -960 Descending FlightAware
01:20AM 37.1880 139.9200 150° Southeast 469 540 24,900 -960 Descending FlightAware
01:21AM 37.1210 139.9680 150° Southeast 459 528 24,300 -1,080 Descending FlightAware
01:21AM 37.0630 140.0100 150° Southeast 461 531 23,700 -1,020 Descending FlightAware
01:22AM 36.9970 140.0570 150° Southeast 457 526 23,200 -900 Descending FlightAware
01:22AM 36.9560 140.0950 143° Southeast 457 526 22,800 -1,500 Descending FlightAware
01:23AM 36.9040 140.1530 138° Southeast 445 512 21,800 -1,740 Descending FlightAware
01:24AM 36.8450 140.2060 144° Southeast 432 497 20,800 -1,680 Descending FlightAware
01:24AM 36.7890 140.2440 151° Southeast 428 493 19,900 -1,620 Descending FlightAware
01:25AM 36.7270 140.2830 153° Southeast 424 488 19,000 -1,680 Descending FlightAware
01:25AM 36.6640 140.3220 154° Southeast 416 479 17,900 -1,860 Descending FlightAware
01:26AM 36.6020 140.3610 153° Southeast 408 470 16,800 -1,980 Descending FlightAware
01:27AM 36.5490 140.3940 153° Southeast 404 465 15,700 -1,860 Descending FlightAware
01:27AM 36.5010 140.4320 148° Southeast 405 466 14,900 -1,500 Descending FlightAware
01:27AM 36.4660 140.4800 132° Southeast 405 466 14,300 -1,320 Descending FlightAware
01:28AM 36.4220 140.5450 130° Southeast 401 461 13,500 -1,260 Descending FlightAware
01:29AM 36.3850 140.6000 130° Southeast 401 461 12,900 -1,080 Descending FlightAware
01:29AM 36.3400 140.6630 132° Southeast 397 457 12,300 -840 Descending FlightAware
01:30AM 36.2920 140.7140 139° Southeast 392 451 11,900 -960 Descending FlightAware
01:30AM 36.2470 140.7440 152° Southeast 383 441 11,300 -1,020 Descending FlightAware
01:31AM 36.1900 140.7630 165° South 382 440 10,900 -360 Descending FlightAware
01:31AM 36.1270 140.7810 167° South 379 436 10,900 -720 Level FlightAware
01:32AM 36.0660 140.7960 169° South 362 417 10,100 -780 Descending FlightAware
01:33AM 36.0230 140.7840 193° South 320 368 10,100  Level FlightAware
01:33AM 35.9850 140.7550 212° Southwest 282 325 10,100 -300 Level FlightAware
01:33AM 35.9790 140.7460 231° Southwest 277 319 9,900 -1,500 Descending FlightAware
01:33AM 35.9740 140.7340 243° Southwest 273 314 9,700 -1,920 Descending FlightAware
01:33AM 35.9710 140.7220 253° West 275 316 9,400 -1,980 Descending FlightAware
01:34AM 35.9720 140.6800 272° West 284 327 8,600 -1,560 Descending FlightAware
01:34AM 35.9740 140.6420 274° West 284 327 8,100 -1,260 Descending FlightAware
01:35AM 35.9750 140.6100 272° West 275 316 7,700 -1,380 Descending FlightAware
01:35AM 35.9760 140.5800 272° West 270 311 7,200 -1,380 Descending FlightAware
01:35AM 35.9770 140.5490 272° West 260 299 6,800 -1,380 Descending FlightAware
01:36AM 35.9780 140.5250 273° West 248 285 6,400 -1,500 Descending FlightAware
01:36AM 35.9750 140.4830 265° West 230 265 5,600 -1,620 Descending FlightAware
01:36AM 35.9700 140.4620 254° West 223 257 5,100 -1,680 Descending FlightAware
01:37AM 35.9650 140.4390 255° West 215 247 4,600 -1,680 Descending FlightAware
01:37AM 35.9610 140.4200 255° West 207 238 4,100 -1,680 Descending FlightAware
01:37AM 35.9560 140.3980 254° West 198 228 3,600 -1,740 Descending FlightAware
01:38AM 35.9510 140.3770 254° West 197 227 3,000 -1,500 Descending FlightAware
01:38AM 35.9470 140.3590 255° West 192 221 2,700 -1,200 Descending FlightAware
01:38AM 35.9410 140.3380 251° West 189 217 2,300 -1,020 Descending FlightAware
01:38AM 35.9390 140.3350 231° Southwest 187 215 2,300 -900 Level FlightAware
01:38AM 35.9340 140.3270 232° Southwest 183 211 2,100 -960 Descending FlightAware
01:39AM 35.9240 140.3170 219° Southwest 183 211 1,900 -900 Descending FlightAware
01:39AM 35.9210 140.3150 208° Southwest 185 213 1,800 -540 Descending FlightAware
01:39AM 35.9140 140.3130 193° South 184 212 1,800  Level FlightAware
01:39AM 35.9030 140.3130 180° South 187 215 1,800  Level FlightAware
01:39AM 35.8900 140.3170 166° South 173 199 1,800 -240 Level FlightAware
01:40AM 35.8800 140.3240 150° Southeast 170 196 1,700 -600 Descending FlightAware
01:40AM 35.8670 140.3330 151° Southeast 168 193 1,500 -780 Descending FlightAware
01:40AM 35.8540 140.3430 148° Southeast 157 181 1,200 -960 Descending FlightAware
01:41AM 35.8430 140.3500 153° Southeast 154 177 900 -840 Descending FlightAware
01:41AM 35.8320 140.3590 146° Southeast 148 170 700 -780 Descending FlightAware
01:41AM 35.8200 140.3670 152° Southeast 146 168 400 -780 Descending FlightAware
01:42AM 35.8090 140.3750 149° Southeast 143 165 200 -360 Descending FlightAware
01:42AM 35.7920 140.3880 148° Southeast 141 162 100 -240 Descending FlightAware